sensor_id;sensor_type;location;lat;lon;timestamp;P1;durP1;ratioP1;P2;durP2;ratioP2
12840;SDS011;6487;48.626;12.486;2022-09-09T00:00:21;4.20;;;2.10;;
12840;SDS011;6487;48.626;12.486;2022-09-09T00:02:51;3.13;;;1.87;;
12840;SDS011;6487;48.626;12.486;2022-09-09T00:05:29;5.47;;;2.57;;
12840;SDS011;6487;48.626;12.486;2022-09-09T00:08:07;2.07;;;1.70;;
12840;SDS011;6487;48.626;12.486;2022-09-09T00:10:46;4.40;;;2.00;;
12840;SDS011;6487;48.626;12.486;2022-09-09T00:13:22;5.60;;;1.93;;
12840;SDS011;6487;48.626;12.486;2022-09-09T00:16:02;2.53;;;2.00;;
12840;SDS011;6487;48.626;12.486;2022-09-09T00:18:40;1.60;;;1.50;;
12840;SDS011;6487;48.626;12.486;2022-09-09T00:21:19;3.00;;;1.80;;
12840;SDS011;6487;48.626;12.486;2022-09-09T00:23:53;2.50;;;1.70;;
12840;SDS011;6487;48.626;12.486;2022-09-09T00:26:24;3.30;;;1.63;;
12840;SDS011;6487;48.626;12.486;2022-09-09T00:29:02;2.20;;;2.00;;
12840;SDS011;6487;48.626;12.486;2022-09-09T00:31:43;4.17;;;2.10;;
12840;SDS011;6487;48.626;12.486;2022-09-09T00:34:14;3.57;;;2.00;;
12840;SDS011;6487;48.626;12.486;2022-09-09T00:36:47;5.00;;;1.93;;
12840;SDS011;6487;48.626;12.486;2022-09-09T00:39:20;4.13;;;2.07;;
12840;SDS011;6487;48.626;12.486;2022-09-09T00:42:05;2.20;;;2.00;;
12840;SDS011;6487;48.626;12.486;2022-09-09T00:44:46;2.43;;;1.97;;
12840;SDS011;6487;48.626;12.486;2022-09-09T00:47:35;3.57;;;1.80;;
12840;SDS011;6487;48.626;12.486;2022-09-09T00:53:12;2.10;;;1.53;;
12840;SDS011;6487;48.626;12.486;2022-09-09T00:55:58;3.50;;;1.90;;
12840;SDS011;6487;48.626;12.486;2022-09-09T00:58:37;3.20;;;2.00;;
12840;SDS011;6487;48.626;12.486;2022-09-09T01:01:06;5.07;;;1.97;;
12840;SDS011;6487;48.626;12.486;2022-09-09T01:03:41;2.10;;;1.70;;
12840;SDS011;6487;48.626;12.486;2022-09-09T01:06:16;1.80;;;1.67;;
12840;SDS011;6487;48.626;12.486;2022-09-09T01:11:52;5.73;;;1.90;;
12840;SDS011;6487;48.626;12.486;2022-09-09T01:14:35;2.17;;;1.80;;
12840;SDS011;6487;48.626;12.486;2022-09-09T01:17:12;6.23;;;2.07;;
12840;SDS011;6487;48.626;12.486;2022-09-09T01:19:49;3.47;;;1.70;;
12840;SDS011;6487;48.626;12.486;2022-09-09T01:22:30;3.63;;;1.80;;
12840;SDS011;6487;48.626;12.486;2022-09-09T01:25:17;5.07;;;1.80;;
12840;SDS011;6487;48.626;12.486;2022-09-09T01:27:59;2.53;;;1.50;;
12840;SDS011;6487;48.626;12.486;2022-09-09T01:30:31;2.03;;;1.50;;
12840;SDS011;6487;48.626;12.486;2022-09-09T01:33:00;2.67;;;1.53;;
12840;SDS011;6487;48.626;12.486;2022-09-09T01:35:33;2.10;;;1.37;;
12840;SDS011;6487;48.626;12.486;2022-09-09T01:38:17;2.10;;;1.60;;
12840;SDS011;6487;48.626;12.486;2022-09-09T01:40:45;2.00;;;1.80;;
12840;SDS011;6487;48.626;12.486;2022-09-09T01:43:16;2.33;;;1.50;;
12840;SDS011;6487;48.626;12.486;2022-09-09T01:45:45;3.90;;;1.80;;
12840;SDS011;6487;48.626;12.486;2022-09-09T01:48:15;2.17;;;1.47;;
12840;SDS011;6487;48.626;12.486;2022-09-09T01:50:44;4.93;;;1.67;;
12840;SDS011;6487;48.626;12.486;2022-09-09T01:53:12;6.00;;;2.47;;
12840;SDS011;6487;48.626;12.486;2022-09-09T01:55:44;4.57;;;1.70;;
12840;SDS011;6487;48.626;12.486;2022-09-09T01:58:25;4.90;;;1.80;;
12840;SDS011;6487;48.626;12.486;2022-09-09T02:01:06;3.67;;;1.57;;
12840;SDS011;6487;48.626;12.486;2022-09-09T02:03:43;2.90;;;1.40;;
12840;SDS011;6487;48.626;12.486;2022-09-09T02:06:22;3.80;;;1.60;;
12840;SDS011;6487;48.626;12.486;2022-09-09T02:08:57;2.30;;;1.67;;
12840;SDS011;6487;48.626;12.486;2022-09-09T02:11:30;3.23;;;2.00;;
12840;SDS011;6487;48.626;12.486;2022-09-09T02:14:01;4.50;;;1.90;;
12840;SDS011;6487;48.626;12.486;2022-09-09T02:16:37;2.67;;;1.70;;
12840;SDS011;6487;48.626;12.486;2022-09-09T02:19:11;2.00;;;1.80;;
12840;SDS011;6487;48.626;12.486;2022-09-09T02:21:43;4.83;;;2.20;;
12840;SDS011;6487;48.626;12.486;2022-09-09T02:24:13;2.90;;;1.67;;
12840;SDS011;6487;48.626;12.486;2022-09-09T02:26:44;3.63;;;1.70;;
12840;SDS011;6487;48.626;12.486;2022-09-09T02:29:21;6.03;;;1.57;;
12840;SDS011;6487;48.626;12.486;2022-09-09T02:31:54;3.37;;;1.67;;
12840;SDS011;6487;48.626;12.486;2022-09-09T02:34:28;8.00;;;1.80;;
12840;SDS011;6487;48.626;12.486;2022-09-09T02:37:00;4.07;;;1.80;;
12840;SDS011;6487;48.626;12.486;2022-09-09T02:39:31;4.60;;;1.90;;
12840;SDS011;6487;48.626;12.486;2022-09-09T02:41:59;2.00;;;1.80;;
12840;SDS011;6487;48.626;12.486;2022-09-09T02:44:31;2.20;;;1.83;;
12840;SDS011;6487;48.626;12.486;2022-09-09T02:47:07;5.27;;;2.10;;
12840;SDS011;6487;48.626;12.486;2022-09-09T02:49:50;3.00;;;2.00;;
12840;SDS011;6487;48.626;12.486;2022-09-09T02:52:32;4.27;;;1.90;;
12840;SDS011;6487;48.626;12.486;2022-09-09T02:55:17;3.93;;;1.90;;
12840;SDS011;6487;48.626;12.486;2022-09-09T02:57:51;2.83;;;1.70;;
12840;SDS011;6487;48.626;12.486;2022-09-09T03:00:24;2.60;;;1.80;;
12840;SDS011;6487;48.626;12.486;2022-09-09T03:02:54;3.07;;;1.80;;
12840;SDS011;6487;48.626;12.486;2022-09-09T03:05:23;4.10;;;1.90;;
12840;SDS011;6487;48.626;12.486;2022-09-09T03:07:52;2.67;;;1.93;;
12840;SDS011;6487;48.626;12.486;2022-09-09T03:10:20;4.43;;;2.13;;
12840;SDS011;6487;48.626;12.486;2022-09-09T03:12:49;4.13;;;1.90;;
12840;SDS011;6487;48.626;12.486;2022-09-09T03:15:17;4.37;;;2.10;;
12840;SDS011;6487;48.626;12.486;2022-09-09T03:17:47;1.80;;;1.63;;
12840;SDS011;6487;48.626;12.486;2022-09-09T03:20:15;2.97;;;1.70;;
12840;SDS011;6487;48.626;12.486;2022-09-09T03:22:44;5.47;;;2.00;;
12840;SDS011;6487;48.626;12.486;2022-09-09T03:25:12;2.10;;;2.00;;
12840;SDS011;6487;48.626;12.486;2022-09-09T03:27:40;2.50;;;1.97;;
12840;SDS011;6487;48.626;12.486;2022-09-09T03:30:09;1.93;;;1.83;;
12840;SDS011;6487;48.626;12.486;2022-09-09T03:32:38;2.87;;;1.90;;
12840;SDS011;6487;48.626;12.486;2022-09-09T03:35:08;3.00;;;2.70;;
12840;SDS011;6487;48.626;12.486;2022-09-09T03:37:36;5.30;;;2.13;;
12840;SDS011;6487;48.626;12.486;2022-09-09T03:40:05;2.10;;;1.70;;
12840;SDS011;6487;48.626;12.486;2022-09-09T03:42:36;2.40;;;1.93;;
12840;SDS011;6487;48.626;12.486;2022-09-09T03:45:05;3.80;;;1.70;;
12840;SDS011;6487;48.626;12.486;2022-09-09T03:47:36;3.60;;;2.10;;
12840;SDS011;6487;48.626;12.486;2022-09-09T03:50:05;3.77;;;1.90;;
12840;SDS011;6487;48.626;12.486;2022-09-09T03:52:37;3.97;;;1.70;;
12840;SDS011;6487;48.626;12.486;2022-09-09T03:55:07;3.47;;;2.03;;
12840;SDS011;6487;48.626;12.486;2022-09-09T03:57:36;4.13;;;1.80;;
12840;SDS011;6487;48.626;12.486;2022-09-09T04:00:06;4.80;;;1.70;;
12840;SDS011;6487;48.626;12.486;2022-09-09T04:02:36;1.83;;;1.73;;
12840;SDS011;6487;48.626;12.486;2022-09-09T04:05:05;2.17;;;1.97;;
12840;SDS011;6487;48.626;12.486;2022-09-09T04:07:36;2.13;;;1.77;;
12840;SDS011;6487;48.626;12.486;2022-09-09T04:10:04;2.20;;;2.00;;
12840;SDS011;6487;48.626;12.486;2022-09-09T04:12:34;2.20;;;1.70;;
12840;SDS011;6487;48.626;12.486;2022-09-09T04:15:03;2.07;;;1.87;;
12840;SDS011;6487;48.626;12.486;2022-09-09T04:17:33;2.97;;;1.90;;
12840;SDS011;6487;48.626;12.486;2022-09-09T04:20:02;1.97;;;1.53;;
12840;SDS011;6487;48.626;12.486;2022-09-09T04:22:32;3.20;;;1.60;;
12840;SDS011;6487;48.626;12.486;2022-09-09T04:25:01;2.23;;;1.60;;
12840;SDS011;6487;48.626;12.486;2022-09-09T04:27:29;3.03;;;1.77;;
12840;SDS011;6487;48.626;12.486;2022-09-09T04:29:57;3.50;;;2.03;;
12840;SDS011;6487;48.626;12.486;2022-09-09T04:32:26;6.40;;;1.90;;
12840;SDS011;6487;48.626;12.486;2022-09-09T04:34:54;2.50;;;1.80;;
12840;SDS011;6487;48.626;12.486;2022-09-09T04:37:22;1.97;;;1.73;;
12840;SDS011;6487;48.626;12.486;2022-09-09T04:39:52;2.50;;;1.70;;
12840;SDS011;6487;48.626;12.486;2022-09-09T04:42:20;2.03;;;1.93;;
12840;SDS011;6487;48.626;12.486;2022-09-09T04:44:49;3.50;;;1.90;;
12840;SDS011;6487;48.626;12.486;2022-09-09T04:47:17;4.47;;;2.10;;
12840;SDS011;6487;48.626;12.486;2022-09-09T04:49:45;3.53;;;1.80;;
12840;SDS011;6487;48.626;12.486;2022-09-09T04:52:13;3.30;;;1.73;;
12840;SDS011;6487;48.626;12.486;2022-09-09T04:54:43;1.70;;;1.60;;
12840;SDS011;6487;48.626;12.486;2022-09-09T04:57:13;2.10;;;1.90;;
12840;SDS011;6487;48.626;12.486;2022-09-09T04:59:44;3.17;;;1.70;;
12840;SDS011;6487;48.626;12.486;2022-09-09T05:02:12;1.90;;;1.73;;
12840;SDS011;6487;48.626;12.486;2022-09-09T05:04:40;3.23;;;1.60;;
12840;SDS011;6487;48.626;12.486;2022-09-09T05:07:09;3.87;;;1.50;;
12840;SDS011;6487;48.626;12.486;2022-09-09T05:09:37;1.57;;;1.40;;
12840;SDS011;6487;48.626;12.486;2022-09-09T05:12:05;1.80;;;1.70;;
12840;SDS011;6487;48.626;12.486;2022-09-09T05:14:35;4.37;;;1.57;;
12840;SDS011;6487;48.626;12.486;2022-09-09T05:17:04;2.37;;;1.60;;
12840;SDS011;6487;48.626;12.486;2022-09-09T05:19:32;2.27;;;1.77;;
12840;SDS011;6487;48.626;12.486;2022-09-09T05:22:00;3.83;;;2.30;;
12840;SDS011;6487;48.626;12.486;2022-09-09T05:24:29;2.37;;;1.90;;
12840;SDS011;6487;48.626;12.486;2022-09-09T05:26:59;2.37;;;1.70;;
12840;SDS011;6487;48.626;12.486;2022-09-09T05:29:28;2.00;;;1.83;;
12840;SDS011;6487;48.626;12.486;2022-09-09T05:32:01;2.50;;;1.80;;
12840;SDS011;6487;48.626;12.486;2022-09-09T05:34:30;2.37;;;1.60;;
12840;SDS011;6487;48.626;12.486;2022-09-09T05:36:58;4.60;;;1.60;;
12840;SDS011;6487;48.626;12.486;2022-09-09T05:39:27;1.77;;;1.67;;
12840;SDS011;6487;48.626;12.486;2022-09-09T05:41:55;2.30;;;1.70;;
12840;SDS011;6487;48.626;12.486;2022-09-09T05:44:23;1.77;;;1.60;;
12840;SDS011;6487;48.626;12.486;2022-09-09T05:46:53;2.80;;;2.00;;
12840;SDS011;6487;48.626;12.486;2022-09-09T05:49:24;2.70;;;2.10;;
12840;SDS011;6487;48.626;12.486;2022-09-09T05:51:52;3.30;;;1.60;;
12840;SDS011;6487;48.626;12.486;2022-09-09T05:54:21;3.80;;;1.60;;
12840;SDS011;6487;48.626;12.486;2022-09-09T05:56:50;2.03;;;1.63;;
12840;SDS011;6487;48.626;12.486;2022-09-09T05:59:19;1.97;;;1.70;;
12840;SDS011;6487;48.626;12.486;2022-09-09T06:01:49;1.70;;;1.53;;
12840;SDS011;6487;48.626;12.486;2022-09-09T06:04:20;1.70;;;1.60;;
12840;SDS011;6487;48.626;12.486;2022-09-09T06:06:51;1.70;;;1.60;;
12840;SDS011;6487;48.626;12.486;2022-09-09T06:09:20;2.50;;;1.73;;
12840;SDS011;6487;48.626;12.486;2022-09-09T06:11:49;2.03;;;1.83;;
12840;SDS011;6487;48.626;12.486;2022-09-09T06:14:17;2.10;;;1.90;;
12840;SDS011;6487;48.626;12.486;2022-09-09T06:16:45;1.63;;;1.53;;
12840;SDS011;6487;48.626;12.486;2022-09-09T06:19:13;3.00;;;1.87;;
12840;SDS011;6487;48.626;12.486;2022-09-09T06:21:42;1.70;;;1.60;;
12840;SDS011;6487;48.626;12.486;2022-09-09T06:24:12;1.80;;;1.70;;
12840;SDS011;6487;48.626;12.486;2022-09-09T06:26:43;2.57;;;1.90;;
12840;SDS011;6487;48.626;12.486;2022-09-09T06:29:11;2.17;;;2.03;;
12840;SDS011;6487;48.626;12.486;2022-09-09T06:31:40;2.00;;;1.90;;
12840;SDS011;6487;48.626;12.486;2022-09-09T06:34:08;2.53;;;2.33;;
12840;SDS011;6487;48.626;12.486;2022-09-09T06:36:37;2.70;;;2.50;;
12840;SDS011;6487;48.626;12.486;2022-09-09T06:39:06;2.20;;;1.93;;
12840;SDS011;6487;48.626;12.486;2022-09-09T06:41:41;3.00;;;1.93;;
12840;SDS011;6487;48.626;12.486;2022-09-09T06:44:10;3.43;;;2.17;;
12840;SDS011;6487;48.626;12.486;2022-09-09T06:46:38;2.50;;;2.30;;
12840;SDS011;6487;48.626;12.486;2022-09-09T06:49:07;3.97;;;2.23;;
12840;SDS011;6487;48.626;12.486;2022-09-09T06:51:36;2.27;;;2.07;;
12840;SDS011;6487;48.626;12.486;2022-09-09T06:54:09;5.90;;;2.50;;
12840;SDS011;6487;48.626;12.486;2022-09-09T06:56:39;2.00;;;1.90;;
12840;SDS011;6487;48.626;12.486;2022-09-09T06:59:11;2.33;;;2.13;;
12840;SDS011;6487;48.626;12.486;2022-09-09T07:01:40;2.40;;;2.20;;
12840;SDS011;6487;48.626;12.486;2022-09-09T07:04:11;2.23;;;2.10;;
12840;SDS011;6487;48.626;12.486;2022-09-09T07:06:40;2.13;;;1.97;;
12840;SDS011;6487;48.626;12.486;2022-09-09T07:09:12;4.53;;;2.40;;
12840;SDS011;6487;48.626;12.486;2022-09-09T07:11:44;2.60;;;2.23;;
12840;SDS011;6487;48.626;12.486;2022-09-09T07:14:14;2.57;;;2.13;;
12840;SDS011;6487;48.626;12.486;2022-09-09T07:16:44;2.57;;;2.37;;
12840;SDS011;6487;48.626;12.486;2022-09-09T07:19:13;2.17;;;2.03;;
12840;SDS011;6487;48.626;12.486;2022-09-09T07:21:42;4.07;;;2.03;;
12840;SDS011;6487;48.626;12.486;2022-09-09T07:24:11;4.20;;;2.30;;
12840;SDS011;6487;48.626;12.486;2022-09-09T07:26:39;2.83;;;2.10;;
12840;SDS011;6487;48.626;12.486;2022-09-09T07:29:09;2.73;;;2.43;;
12840;SDS011;6487;48.626;12.486;2022-09-09T07:31:45;2.47;;;2.27;;
12840;SDS011;6487;48.626;12.486;2022-09-09T07:34:14;2.77;;;2.57;;
12840;SDS011;6487;48.626;12.486;2022-09-09T07:36:43;3.23;;;2.57;;
12840;SDS011;6487;48.626;12.486;2022-09-09T07:39:13;3.77;;;2.53;;
12840;SDS011;6487;48.626;12.486;2022-09-09T07:41:44;2.87;;;2.40;;
12840;SDS011;6487;48.626;12.486;2022-09-09T07:44:15;3.70;;;2.50;;
12840;SDS011;6487;48.626;12.486;2022-09-09T07:46:48;2.90;;;2.20;;
12840;SDS011;6487;48.626;12.486;2022-09-09T07:49:16;4.80;;;2.80;;
12840;SDS011;6487;48.626;12.486;2022-09-09T07:51:53;2.67;;;2.47;;
12840;SDS011;6487;48.626;12.486;2022-09-09T07:54:22;3.87;;;2.83;;
12840;SDS011;6487;48.626;12.486;2022-09-09T07:56:50;3.17;;;2.87;;
12840;SDS011;6487;48.626;12.486;2022-09-09T07:59:21;3.20;;;2.90;;
12840;SDS011;6487;48.626;12.486;2022-09-09T08:01:52;3.00;;;2.70;;
12840;SDS011;6487;48.626;12.486;2022-09-09T08:04:21;2.67;;;2.47;;
12840;SDS011;6487;48.626;12.486;2022-09-09T08:06:52;3.40;;;2.77;;
12840;SDS011;6487;48.626;12.486;2022-09-09T08:09:23;2.50;;;2.30;;
12840;SDS011;6487;48.626;12.486;2022-09-09T08:11:55;2.60;;;2.40;;
12840;SDS011;6487;48.626;12.486;2022-09-09T08:14:26;3.27;;;2.27;;
12840;SDS011;6487;48.626;12.486;2022-09-09T08:16:55;3.13;;;2.73;;
12840;SDS011;6487;48.626;12.486;2022-09-09T08:19:23;3.70;;;3.40;;
12840;SDS011;6487;48.626;12.486;2022-09-09T08:21:51;8.70;;;3.97;;
12840;SDS011;6487;48.626;12.486;2022-09-09T08:24:20;5.23;;;3.70;;
12840;SDS011;6487;48.626;12.486;2022-09-09T08:26:49;3.37;;;3.17;;
12840;SDS011;6487;48.626;12.486;2022-09-09T08:29:17;5.47;;;3.67;;
12840;SDS011;6487;48.626;12.486;2022-09-09T08:31:48;5.77;;;3.80;;
12840;SDS011;6487;48.626;12.486;2022-09-09T08:34:19;5.17;;;3.90;;
12840;SDS011;6487;48.626;12.486;2022-09-09T08:36:48;4.60;;;4.20;;
12840;SDS011;6487;48.626;12.486;2022-09-09T08:39:18;6.80;;;4.47;;
12840;SDS011;6487;48.626;12.486;2022-09-09T08:45:02;5.37;;;4.03;;
12840;SDS011;6487;48.626;12.486;2022-09-09T08:47:50;4.77;;;4.23;;
12840;SDS011;6487;48.626;12.486;2022-09-09T08:50:36;5.07;;;3.70;;
12840;SDS011;6487;48.626;12.486;2022-09-09T08:53:09;4.17;;;3.77;;
12840;SDS011;6487;48.626;12.486;2022-09-09T08:55:45;5.20;;;3.57;;
12840;SDS011;6487;48.626;12.486;2022-09-09T08:58:16;3.60;;;3.30;;
12840;SDS011;6487;48.626;12.486;2022-09-09T09:01:17;6.63;;;3.40;;
12840;SDS011;6487;48.626;12.486;2022-09-09T09:04:10;4.00;;;3.27;;
12840;SDS011;6487;48.626;12.486;2022-09-09T09:06:54;4.00;;;3.23;;
12840;SDS011;6487;48.626;12.486;2022-09-09T09:09:36;7.17;;;3.77;;
12840;SDS011;6487;48.626;12.486;2022-09-09T09:12:15;5.43;;;3.30;;
12840;SDS011;6487;48.626;12.486;2022-09-09T09:14:46;5.03;;;3.23;;
12840;SDS011;6487;48.626;12.486;2022-09-09T09:17:16;3.33;;;3.03;;
12840;SDS011;6487;48.626;12.486;2022-09-09T09:19:48;4.87;;;2.90;;
12840;SDS011;6487;48.626;12.486;2022-09-09T09:22:18;3.53;;;2.77;;
12840;SDS011;6487;48.626;12.486;2022-09-09T09:24:52;4.70;;;3.33;;
12840;SDS011;6487;48.626;12.486;2022-09-09T09:27:26;3.07;;;2.83;;
12840;SDS011;6487;48.626;12.486;2022-09-09T09:30:02;4.27;;;2.87;;
12840;SDS011;6487;48.626;12.486;2022-09-09T09:32:54;4.30;;;2.70;;
12840;SDS011;6487;48.626;12.486;2022-09-09T09:35:28;2.73;;;2.53;;
12840;SDS011;6487;48.626;12.486;2022-09-09T09:37:57;2.93;;;2.73;;
12840;SDS011;6487;48.626;12.486;2022-09-09T09:40:50;3.50;;;3.20;;
12840;SDS011;6487;48.626;12.486;2022-09-09T09:43:25;2.97;;;2.77;;
12840;SDS011;6487;48.626;12.486;2022-09-09T09:45:56;3.30;;;3.00;;
12840;SDS011;6487;48.626;12.486;2022-09-09T09:48:43;4.23;;;2.87;;
12840;SDS011;6487;48.626;12.486;2022-09-09T09:51:14;3.53;;;2.40;;
12840;SDS011;6487;48.626;12.486;2022-09-09T09:53:45;3.43;;;2.60;;
12840;SDS011;6487;48.626;12.486;2022-09-09T09:56:13;2.90;;;2.63;;
12840;SDS011;6487;48.626;12.486;2022-09-09T09:58:48;2.47;;;2.27;;
12840;SDS011;6487;48.626;12.486;2022-09-09T10:01:20;4.43;;;2.33;;
12840;SDS011;6487;48.626;12.486;2022-09-09T10:03:51;2.47;;;2.17;;
12840;SDS011;6487;48.626;12.486;2022-09-09T10:06:33;4.40;;;2.50;;
12840;SDS011;6487;48.626;12.486;2022-09-09T10:09:17;2.30;;;2.10;;
12840;SDS011;6487;48.626;12.486;2022-09-09T10:11:52;3.93;;;2.47;;
12840;SDS011;6487;48.626;12.486;2022-09-09T10:14:29;2.73;;;2.43;;
12840;SDS011;6487;48.626;12.486;2022-09-09T10:17:08;5.03;;;2.33;;
12840;SDS011;6487;48.626;12.486;2022-09-09T10:19:51;2.90;;;2.40;;
12840;SDS011;6487;48.626;12.486;2022-09-09T10:22:33;6.07;;;2.70;;
12840;SDS011;6487;48.626;12.486;2022-09-09T10:25:05;4.97;;;2.63;;
12840;SDS011;6487;48.626;12.486;2022-09-09T10:27:53;3.93;;;2.60;;
12840;SDS011;6487;48.626;12.486;2022-09-09T10:30:40;3.30;;;2.70;;
12840;SDS011;6487;48.626;12.486;2022-09-09T10:33:22;5.50;;;2.33;;
12840;SDS011;6487;48.626;12.486;2022-09-09T10:36:02;5.33;;;2.80;;
12840;SDS011;6487;48.626;12.486;2022-09-09T10:38:42;2.73;;;2.53;;
12840;SDS011;6487;48.626;12.486;2022-09-09T10:41:15;3.90;;;2.70;;
12840;SDS011;6487;48.626;12.486;2022-09-09T10:43:57;3.90;;;2.40;;
12840;SDS011;6487;48.626;12.486;2022-09-09T10:47:11;2.67;;;2.10;;
12840;SDS011;6487;48.626;12.486;2022-09-09T10:50:08;3.13;;;2.10;;
12840;SDS011;6487;48.626;12.486;2022-09-09T10:53:13;2.73;;;1.93;;
12840;SDS011;6487;48.626;12.486;2022-09-09T10:55:50;5.37;;;2.27;;
12840;SDS011;6487;48.626;12.486;2022-09-09T10:58:22;2.03;;;1.73;;
12840;SDS011;6487;48.626;12.486;2022-09-09T11:00:56;2.13;;;1.93;;
12840;SDS011;6487;48.626;12.486;2022-09-09T11:03:29;2.43;;;1.83;;
12840;SDS011;6487;48.626;12.486;2022-09-09T11:06:00;3.03;;;2.27;;
12840;SDS011;6487;48.626;12.486;2022-09-09T11:08:34;3.07;;;2.20;;
12840;SDS011;6487;48.626;12.486;2022-09-09T11:11:09;2.93;;;2.00;;
12840;SDS011;6487;48.626;12.486;2022-09-09T11:13:45;4.00;;;1.83;;
12840;SDS011;6487;48.626;12.486;2022-09-09T11:16:20;2.43;;;2.23;;
12840;SDS011;6487;48.626;12.486;2022-09-09T11:18:55;4.10;;;2.70;;
12840;SDS011;6487;48.626;12.486;2022-09-09T11:21:30;2.90;;;2.10;;
12840;SDS011;6487;48.626;12.486;2022-09-09T11:24:06;2.27;;;2.00;;
12840;SDS011;6487;48.626;12.486;2022-09-09T11:26:45;3.50;;;2.53;;
12840;SDS011;6487;48.626;12.486;2022-09-09T11:29:23;3.13;;;1.87;;
12840;SDS011;6487;48.626;12.486;2022-09-09T11:32:39;3.30;;;2.30;;
12840;SDS011;6487;48.626;12.486;2022-09-09T11:35:32;4.37;;;2.37;;
12840;SDS011;6487;48.626;12.486;2022-09-09T11:38:18;3.83;;;2.00;;
12840;SDS011;6487;48.626;12.486;2022-09-09T11:40:57;2.03;;;1.83;;
12840;SDS011;6487;48.626;12.486;2022-09-09T11:43:29;2.37;;;2.07;;
12840;SDS011;6487;48.626;12.486;2022-09-09T11:46:01;2.80;;;1.90;;
12840;SDS011;6487;48.626;12.486;2022-09-09T11:48:32;3.63;;;1.90;;
12840;SDS011;6487;48.626;12.486;2022-09-09T11:51:04;1.77;;;1.47;;
12840;SDS011;6487;48.626;12.486;2022-09-09T11:53:49;2.50;;;1.77;;
12840;SDS011;6487;48.626;12.486;2022-09-09T11:56:25;6.77;;;2.20;;
12840;SDS011;6487;48.626;12.486;2022-09-09T11:59:00;4.73;;;2.20;;
12840;SDS011;6487;48.626;12.486;2022-09-09T12:01:33;2.63;;;1.93;;
12840;SDS011;6487;48.626;12.486;2022-09-09T12:04:12;5.23;;;2.13;;
12840;SDS011;6487;48.626;12.486;2022-09-09T12:06:56;3.10;;;1.80;;
12840;SDS011;6487;48.626;12.486;2022-09-09T12:09:33;4.10;;;1.83;;
12840;SDS011;6487;48.626;12.486;2022-09-09T12:15:23;3.50;;;1.50;;
12840;SDS011;6487;48.626;12.486;2022-09-09T12:17:56;1.90;;;1.60;;
12840;SDS011;6487;48.626;12.486;2022-09-09T12:20:33;2.07;;;1.50;;
12840;SDS011;6487;48.626;12.486;2022-09-09T12:23:11;3.83;;;1.63;;
12840;SDS011;6487;48.626;12.486;2022-09-09T12:26:00;3.50;;;1.90;;
12840;SDS011;6487;48.626;12.486;2022-09-09T12:28:46;2.23;;;1.33;;
12840;SDS011;6487;48.626;12.486;2022-09-09T12:31:25;3.60;;;1.53;;
12840;SDS011;6487;48.626;12.486;2022-09-09T12:34:04;2.13;;;1.30;;
12840;SDS011;6487;48.626;12.486;2022-09-09T12:36:38;2.60;;;1.63;;
12840;SDS011;6487;48.626;12.486;2022-09-09T12:39:18;2.93;;;1.53;;
12840;SDS011;6487;48.626;12.486;2022-09-09T12:41:58;2.67;;;1.23;;
12840;SDS011;6487;48.626;12.486;2022-09-09T12:44:27;3.27;;;1.60;;
12840;SDS011;6487;48.626;12.486;2022-09-09T12:46:57;3.80;;;1.37;;
12840;SDS011;6487;48.626;12.486;2022-09-09T12:49:30;2.17;;;1.20;;
12840;SDS011;6487;48.626;12.486;2022-09-09T12:52:03;2.20;;;1.30;;
12840;SDS011;6487;48.626;12.486;2022-09-09T12:54:36;2.87;;;1.10;;
12840;SDS011;6487;48.626;12.486;2022-09-09T12:57:05;1.97;;;1.10;;
12840;SDS011;6487;48.626;12.486;2022-09-09T12:59:39;1.80;;;1.40;;
12840;SDS011;6487;48.626;12.486;2022-09-09T13:02:16;1.57;;;1.40;;
12840;SDS011;6487;48.626;12.486;2022-09-09T13:04:48;2.20;;;1.27;;
12840;SDS011;6487;48.626;12.486;2022-09-09T13:07:17;2.90;;;1.60;;
12840;SDS011;6487;48.626;12.486;2022-09-09T13:09:48;2.47;;;1.30;;
12840;SDS011;6487;48.626;12.486;2022-09-09T13:12:18;1.30;;;1.20;;
12840;SDS011;6487;48.626;12.486;2022-09-09T13:14:49;3.80;;;1.53;;
12840;SDS011;6487;48.626;12.486;2022-09-09T13:17:24;3.07;;;1.50;;
12840;SDS011;6487;48.626;12.486;2022-09-09T13:19:55;2.33;;;1.40;;
12840;SDS011;6487;48.626;12.486;2022-09-09T13:22:27;2.73;;;1.63;;
12840;SDS011;6487;48.626;12.486;2022-09-09T13:25:00;1.77;;;1.53;;
12840;SDS011;6487;48.626;12.486;2022-09-09T13:27:32;3.73;;;1.43;;
12840;SDS011;6487;48.626;12.486;2022-09-09T13:30:19;2.27;;;1.40;;
12840;SDS011;6487;48.626;12.486;2022-09-09T13:33:05;2.40;;;1.57;;
12840;SDS011;6487;48.626;12.486;2022-09-09T13:35:49;4.03;;;1.40;;
12840;SDS011;6487;48.626;12.486;2022-09-09T13:38:21;1.23;;;1.13;;
12840;SDS011;6487;48.626;12.486;2022-09-09T13:40:56;2.63;;;1.40;;
12840;SDS011;6487;48.626;12.486;2022-09-09T13:43:28;3.23;;;1.57;;
12840;SDS011;6487;48.626;12.486;2022-09-09T13:46:00;3.60;;;1.80;;
12840;SDS011;6487;48.626;12.486;2022-09-09T13:48:31;3.13;;;1.50;;
12840;SDS011;6487;48.626;12.486;2022-09-09T13:51:00;3.97;;;1.40;;
12840;SDS011;6487;48.626;12.486;2022-09-09T13:53:32;1.90;;;1.60;;
12840;SDS011;6487;48.626;12.486;2022-09-09T13:56:00;3.27;;;1.80;;
12840;SDS011;6487;48.626;12.486;2022-09-09T13:58:28;2.43;;;1.40;;
12840;SDS011;6487;48.626;12.486;2022-09-09T14:00:57;2.53;;;1.53;;
12840;SDS011;6487;48.626;12.486;2022-09-09T14:03:25;5.43;;;1.60;;
12840;SDS011;6487;48.626;12.486;2022-09-09T14:05:55;1.87;;;1.23;;
12840;SDS011;6487;48.626;12.486;2022-09-09T14:08:24;3.57;;;1.40;;
12840;SDS011;6487;48.626;12.486;2022-09-09T14:10:55;1.50;;;1.07;;
12840;SDS011;6487;48.626;12.486;2022-09-09T14:13:25;2.20;;;1.50;;
12840;SDS011;6487;48.626;12.486;2022-09-09T14:15:53;3.07;;;1.67;;
12840;SDS011;6487;48.626;12.486;2022-09-09T14:18:22;1.70;;;1.00;;
12840;SDS011;6487;48.626;12.486;2022-09-09T14:20:51;1.73;;;1.10;;
12840;SDS011;6487;48.626;12.486;2022-09-09T14:23:21;4.27;;;1.13;;
12840;SDS011;6487;48.626;12.486;2022-09-09T14:25:50;1.43;;;1.00;;
12840;SDS011;6487;48.626;12.486;2022-09-09T14:30:53;1.23;;;1.07;;
12840;SDS011;6487;48.626;12.486;2022-09-09T14:33:21;2.10;;;1.07;;
12840;SDS011;6487;48.626;12.486;2022-09-09T14:35:55;2.13;;;1.20;;
12840;SDS011;6487;48.626;12.486;2022-09-09T14:38:28;2.20;;;0.90;;
12840;SDS011;6487;48.626;12.486;2022-09-09T14:40:58;1.40;;;1.00;;
12840;SDS011;6487;48.626;12.486;2022-09-09T14:43:26;2.37;;;1.10;;
12840;SDS011;6487;48.626;12.486;2022-09-09T14:45:56;1.97;;;1.20;;
12840;SDS011;6487;48.626;12.486;2022-09-09T14:48:24;1.43;;;0.97;;
12840;SDS011;6487;48.626;12.486;2022-09-09T14:50:52;2.00;;;1.00;;
12840;SDS011;6487;48.626;12.486;2022-09-09T14:53:21;1.10;;;0.90;;
12840;SDS011;6487;48.626;12.486;2022-09-09T14:55:51;2.43;;;1.20;;
12840;SDS011;6487;48.626;12.486;2022-09-09T14:58:19;2.83;;;0.93;;
12840;SDS011;6487;48.626;12.486;2022-09-09T15:00:47;2.30;;;1.03;;
12840;SDS011;6487;48.626;12.486;2022-09-09T15:03:15;1.33;;;1.00;;
12840;SDS011;6487;48.626;12.486;2022-09-09T15:05:44;2.63;;;1.00;;
12840;SDS011;6487;48.626;12.486;2022-09-09T15:08:12;2.00;;;0.97;;
12840;SDS011;6487;48.626;12.486;2022-09-09T15:10:42;2.33;;;1.17;;
12840;SDS011;6487;48.626;12.486;2022-09-09T15:13:12;1.80;;;1.23;;
12840;SDS011;6487;48.626;12.486;2022-09-09T15:15:43;1.57;;;1.03;;
12840;SDS011;6487;48.626;12.486;2022-09-09T15:18:11;1.73;;;1.03;;
12840;SDS011;6487;48.626;12.486;2022-09-09T15:20:44;1.00;;;0.90;;
12840;SDS011;6487;48.626;12.486;2022-09-09T15:23:12;1.03;;;0.80;;
12840;SDS011;6487;48.626;12.486;2022-09-09T15:25:49;3.77;;;1.90;;
12840;SDS011;6487;48.626;12.486;2022-09-09T15:28:20;2.23;;;1.60;;
12840;SDS011;6487;48.626;12.486;2022-09-09T15:30:49;2.43;;;1.17;;
12840;SDS011;6487;48.626;12.486;2022-09-09T15:33:20;2.13;;;1.00;;
12840;SDS011;6487;48.626;12.486;2022-09-09T15:35:49;1.50;;;1.07;;
12840;SDS011;6487;48.626;12.486;2022-09-09T15:38:18;1.23;;;0.90;;